Alba, PA

7:54 AM EDT on May 23, 2015 (GMT -0400)
Southside Rd | | Change Station
CLOSE
Current Station
Personal Weather Station
Location: Canton, PA
Elevation: 1335 ft
Nearby Weather Stations
Active Advisory: Freeze Warning

Elev 1335 ft 41.65 °N, 76.83 °W | Updated 1 second ago

Clear
Clear
38.7 °F
Feels Like 39 °F
N
0.0
Wind Variable Wind from North
Gusts 0.0 mph

Today
High -- | Low -- °F
--% Chance of Precip.
Yesterday
High -- | Low -- °F
Precip. -- in
5:40 AM 8:27 PM
Waxing Crescent, 29% visible
Pressure 30.42 in
Visibility 10.0 miles
Clouds Clear
Windchill 39 °F
Dew Point 35 °F
Humidity 87%
Rainfall 0.00 in
Snow Depth Not available.
UV 1 out of 12
Pollen 8.50 out of 12
Air Quality Not available.
Flu Activity Sporadic
METAR KELM 231053Z 00000KT 10SM CLR 01/M01 A3040 RMK AO2 SLP299 T00111011

More Conditions Fewer Conditions

Pressure 30.42 in
Visibility 10.0 miles
Clouds Clear
Windchill 39 °F
Dew Point 35 °F
Humidity 87%
Rainfall 0.00 in
Snow Depth Not available.
UV 1 out of 12
Pollen 8.50 out of 12
Air Quality Not available.
Flu Activity Sporadic
METAR KELM 231053Z 00000KT 10SM CLR 01/M01 A3040 RMK AO2 SLP299 T00111011

More Conditions Fewer Conditions

10-Day Weather Forecast

Almanac

Astronomy

May. 23, 2015 Rise Set
Actual Time
Civil Twilight
Nautical Twilight
Astronomical Twilight
Moon
Length of Visible Light
Length of Day
Tomorrow will be .
, % of the Moon is Illuminated

Today's Extremes

State Highs State Lows

Community

WunderPhotos

Upload Photos

1,823,435 photos uploaded!

WunderBlogs® & News

Nearby

Air Quality

  Air Quality AQ Index Pollutant
Not available.

Snow Depth

Station Depth Elevation

Earthquake Activity

City Distance Mag. Time & Date
Minimum magnitude displayed is 2.5.

Coastal Water Temperatures

Place Temperature

Stations

Nearby Weather Stations

Station Location Temp. Windchill Dew Point Humidity Wind Precip. Elev Updated Type
                   
Freeze Warning
Statement as of 3:35 AM EDT on May 23, 2015

... Freeze warning remains in effect until 9 am EDT this morning...

* locations... twin tier region... eastern Finger Lakes region...
western Mohawk Valley... western Catskills... and the Pocono
Mountain region.

* Hazards... frost and temperatures near or slightly below freezing.

* Temperatures... lows ranging from upper 20s in isolated cold
spots to the lower 30s for most of the warned area.

* Timing... early this morning.

* Impacts... frost damage or killing freeze to tender vegetation
that is not protected or brought inside.

Precautionary/preparedness actions...

A freeze warning means sub-freezing temperatures are imminent or
highly likely. These conditions will kill crops and other
sensitive vegetation.